Provo Municipal Airport
KPVU : now visible

Airfield :











YOU CAN JOIN US ON...

 
LOGIN :

Register | Disclaimer

   EN    FR    IT 

 









Legend :    VFR   Marginal VFR   IFR   Intensive IFR   Very Intensive IFR
Visi :
Ceiling :
>= 8 km
>= 3000ft
5 to 8 km
1000 to 3000 ft
1500m to 5 km
500 to 1000 ft
800 to 1500m
200 to 500 ft
< 800m
< 200 ft
Symbols :   Thunderstorms  Fog  Heavy snow  Heavy precipitations  Wind > 20 kt






- Airport Elevation : 4497 ft


KPVU - Provo Municipal

CURRENT METAR :
  • 281256Z 11005KT 10SM CLR 14/02 A2984 RMK AO2 SLP060 T01390017

EXPIRED METARs :
  • 281156Z AUTO 10006KT 10SM CLR 14/02 A2983 RMK AO2 SLP054 70005 T01390022 10183 20128 56007
  • 281056Z AUTO 32005KT 10SM CLR 13/02 A2984 RMK AO2 SLP057 T01330017

TAF KPVU
Valid from the 28 at 12:00 until the 29 at 12:00 UTC


281120Z 2812/2912 14009KT P6SM FEW150
FM281700 29009KT P6SM VCSH SCT060 BKN100
FM281900 32020G32KT P6SM SCT090 BKN120
FM282200 31015G24KT P6SM -RA BKN060 OVC090
FM290500 31010KT P6SM -RA BKN060 OVC090
FM291000 33006KT P6SM SCT080 BKN100
KZLC FIR / North America



MET'MAP, your aeronautical weather chart ! - Copyright ORBIFLY December 2007 - Disclaimer

ORBIFLY MET'MAP TEAM :

Programming & Development : Alexandra Zaïnal
Concept & original design : Baudouin d'Aumeries
Assistance for programming : Marc-Olivier Méhu
Technical & hardware support : Manuel Goepfert

Contact : metmap@orbifly.com




SOURCES & CREDITS :

   NOAA       Earth
Advisory